createdAt,value
2022-10-16T00:01:18.477Z,2.20
2022-10-16T00:04:14.665Z,2.00
2022-10-16T00:07:21.775Z,2.10
2022-10-16T00:09:53.549Z,2.13
2022-10-16T00:12:39.424Z,1.83
2022-10-16T00:15:19.740Z,1.95
2022-10-16T00:19:07.916Z,1.90
2022-10-16T00:21:44.329Z,2.25
2022-10-16T00:29:11.273Z,1.90
2022-10-16T00:31:53.519Z,2.10
2022-10-16T00:34:23.376Z,2.30
2022-10-16T00:37:16.561Z,1.98
2022-10-16T00:40:07.710Z,2.23
2022-10-16T00:42:48.323Z,1.90
2022-10-16T00:45:21.184Z,2.40
2022-10-16T00:47:55.688Z,2.20
2022-10-16T00:50:40.909Z,2.20
2022-10-16T00:53:14.201Z,2.20
2022-10-16T00:55:49.907Z,2.33
2022-10-16T00:58:25.898Z,2.20
2022-10-16T01:00:59.913Z,2.05
2022-10-16T01:03:41.390Z,2.40
2022-10-16T01:06:42.693Z,2.50
2022-10-16T01:09:43.573Z,2.22
2022-10-16T01:12:48.057Z,2.00
2022-10-16T01:15:47.272Z,2.10
2022-10-16T01:18:35.663Z,2.20
2022-10-16T01:21:35.389Z,2.35
2022-10-16T01:24:37.211Z,2.05
2022-10-16T01:27:46.900Z,2.25
2022-10-16T01:30:35.493Z,2.00
2022-10-16T01:33:18.611Z,2.30
2022-10-16T01:35:59.148Z,1.90
2022-10-16T01:38:38.445Z,2.20
2022-10-16T01:41:22.007Z,2.10
2022-10-16T01:44:11.711Z,2.17
2022-10-16T01:46:50.268Z,1.95
2022-10-16T01:49:30.873Z,2.03
2022-10-16T01:52:28.540Z,2.22
2022-10-16T01:55:23.851Z,2.30
2022-10-16T01:58:00.321Z,2.00
2022-10-16T02:00:36.492Z,2.25
2022-10-16T02:03:45.205Z,2.05
2022-10-16T02:06:28.225Z,2.10
2022-10-16T02:09:31.086Z,2.10
2022-10-16T02:12:50.606Z,2.10
2022-10-16T02:15:25.651Z,2.00
2022-10-16T02:18:35.409Z,2.03
2022-10-16T02:21:36.437Z,2.10
2022-10-16T02:24:46.036Z,2.42
2022-10-16T02:27:36.890Z,2.50
2022-10-16T02:30:48.298Z,2.88
2022-10-16T02:33:31.100Z,2.40
2022-10-16T02:36:06.177Z,2.53
2022-10-16T02:39:23.043Z,2.67
2022-10-16T02:42:15.892Z,2.40
2022-10-16T02:45:02.707Z,2.28
2022-10-16T02:47:45.799Z,2.47
2022-10-16T02:51:08.782Z,2.35
2022-10-16T02:54:04.036Z,2.05
2022-10-16T02:56:34.446Z,2.55
2022-10-16T02:59:14.749Z,2.25
2022-10-16T03:01:43.994Z,2.00
2022-10-16T03:04:19.921Z,2.30
2022-10-16T03:09:50.394Z,2.00
2022-10-16T03:12:23.057Z,2.30
2022-10-16T03:15:07.613Z,2.13
2022-10-16T03:17:54.029Z,2.22
2022-10-16T03:20:27.609Z,2.20
2022-10-16T03:23:41.963Z,2.17
2022-10-16T03:26:43.619Z,2.38
2022-10-16T03:29:57.693Z,2.33
2022-10-16T03:32:49.228Z,2.15
2022-10-16T03:35:34.865Z,2.10
2022-10-16T03:38:19.573Z,2.15
2022-10-16T03:41:00.107Z,2.10
2022-10-16T03:43:45.509Z,1.92
2022-10-16T03:46:23.204Z,2.03
2022-10-16T03:49:23.161Z,2.08
2022-10-16T03:52:04.280Z,1.92
2022-10-16T03:54:50.812Z,2.10
2022-10-16T03:57:38.032Z,2.10
2022-10-16T04:00:44.681Z,2.10
2022-10-16T04:03:54.716Z,2.35
2022-10-16T04:06:49.040Z,2.30
2022-10-16T04:09:33.185Z,2.08
2022-10-16T04:12:24.416Z,2.10
2022-10-16T04:15:25.393Z,2.10
2022-10-16T04:18:14.598Z,2.00
2022-10-16T04:21:26.392Z,2.45
2022-10-16T04:24:17.583Z,2.08
2022-10-16T04:27:11.115Z,2.20
2022-10-16T04:29:43.493Z,2.20
2022-10-16T04:32:24.855Z,2.15
2022-10-16T04:35:12.855Z,2.00
2022-10-16T04:37:43.716Z,2.00
2022-10-16T04:40:17.813Z,2.13
2022-10-16T04:42:50.215Z,2.20
2022-10-16T04:45:20.186Z,1.90
2022-10-16T04:47:51.921Z,2.17
2022-10-16T04:50:23.655Z,2.42
2022-10-16T04:53:10.721Z,2.13
2022-10-16T04:55:45.736Z,2.15
2022-10-16T04:58:25.311Z,2.28
2022-10-16T05:00:58.016Z,2.38
2022-10-16T05:03:27.841Z,2.33
2022-10-16T05:05:58.312Z,2.22
2022-10-16T05:08:35.330Z,2.28
2022-10-16T05:11:11.317Z,2.10
2022-10-16T05:13:44.248Z,2.13
2022-10-16T05:16:15.985Z,2.33
2022-10-16T05:18:48.683Z,2.50
2022-10-16T05:21:23.389Z,2.25
2022-10-16T05:23:54.633Z,2.47
2022-10-16T05:26:25.455Z,2.60
2022-10-16T05:28:54.902Z,2.22
2022-10-16T05:31:24.215Z,2.20
2022-10-16T05:34:10.200Z,2.47
2022-10-16T05:36:55.762Z,2.50
2022-10-16T05:39:26.903Z,2.30
2022-10-16T05:42:00.437Z,2.33
2022-10-16T05:44:31.505Z,2.22
2022-10-16T05:47:01.968Z,2.08
2022-10-16T05:49:41.428Z,2.17
2022-10-16T05:52:14.155Z,2.38
2022-10-16T05:54:46.242Z,2.20
2022-10-16T05:57:16.207Z,2.05
2022-10-16T06:02:22.355Z,2.30
2022-10-16T06:04:56.020Z,2.20
2022-10-16T06:07:43.363Z,2.22
2022-10-16T06:10:21.175Z,2.05
2022-10-16T06:12:51.802Z,2.22
2022-10-16T06:15:24.235Z,2.40
2022-10-16T06:18:02.695Z,2.03
2022-10-16T06:20:35.495Z,2.22
2022-10-16T06:23:13.857Z,2.25
2022-10-16T06:25:43.321Z,2.10
2022-10-16T06:28:17.542Z,2.22
2022-10-16T06:30:47.553Z,2.03
2022-10-16T06:33:17.798Z,2.28
2022-10-16T06:35:49.741Z,2.13
2022-10-16T06:38:19.642Z,2.13
2022-10-16T07:27:47.056Z,1.80
2022-10-16T07:31:36.031Z,2.22
2022-10-16T07:41:19.998Z,2.30
2022-10-16T07:54:52.536Z,2.00
2022-10-16T08:04:18.831Z,2.15
2022-10-16T08:17:11.613Z,2.00
2022-10-16T08:25:18.266Z,1.90
2022-10-16T08:29:31.546Z,1.70
2022-10-16T08:32:48.298Z,2.08
2022-10-16T08:36:05.569Z,2.17
2022-10-16T08:52:50.903Z,1.63
2022-10-16T08:56:03.774Z,1.90
2022-10-16T09:00:18.799Z,2.10
2022-10-16T09:03:35.085Z,2.20
2022-10-16T09:07:31.809Z,2.03
2022-10-16T09:11:39.944Z,1.80
2022-10-16T09:15:19.650Z,2.10
2022-10-16T09:23:35.970Z,1.98
2022-10-16T09:30:55.286Z,2.03
2022-10-16T09:33:57.140Z,2.10
2022-10-16T09:37:01.973Z,2.20
2022-10-16T09:40:29.199Z,2.42
2022-10-16T09:43:48.143Z,1.90
2022-10-16T09:46:52.982Z,2.00
2022-10-16T09:50:40.252Z,2.30
2022-10-16T09:53:24.641Z,2.00
2022-10-16T10:07:05.943Z,1.90
2022-10-16T10:18:06.214Z,1.98
2022-10-16T10:35:48.519Z,1.80
2022-10-16T10:39:36.099Z,1.80
2022-10-16T10:42:39.293Z,1.90
2022-10-16T10:54:32.494Z,1.73
2022-10-16T11:09:03.778Z,1.80
2022-10-16T11:12:31.372Z,2.00
2022-10-16T11:25:35.341Z,1.90
2022-10-16T11:29:18.776Z,1.90
2022-10-16T11:32:51.909Z,2.00
2022-10-16T11:36:31.524Z,1.75
2022-10-16T11:43:54.973Z,1.90
2022-10-16T11:50:35.971Z,1.77
2022-10-16T12:04:18.681Z,2.00
2022-10-16T12:07:27.675Z,2.00
2022-10-16T12:21:01.455Z,1.90
2022-10-16T12:23:58.076Z,2.20
2022-10-16T12:26:50.154Z,1.90
2022-10-16T12:29:47.934Z,1.92
2022-10-16T12:32:50.703Z,1.90
2022-10-16T12:35:28.255Z,1.98
2022-10-16T12:38:46.328Z,1.60
2022-10-16T12:41:47.473Z,1.70
2022-10-16T12:48:48.330Z,1.90
2022-10-16T12:51:58.818Z,1.67
2022-10-16T12:54:45.745Z,1.65
2022-10-16T12:58:00.572Z,2.33
2022-10-16T13:00:59.096Z,1.77
2022-10-16T13:03:58.182Z,2.00
2022-10-16T13:07:23.150Z,2.03
2022-10-16T13:10:32.457Z,1.70
2022-10-16T13:13:27.671Z,1.75
2022-10-16T13:19:40.567Z,1.80
2022-10-16T13:22:47.805Z,1.90
2022-10-16T13:25:31.385Z,1.80
2022-10-16T13:28:20.369Z,2.00
2022-10-16T13:31:03.448Z,1.80
2022-10-16T13:33:35.703Z,2.20
2022-10-16T13:36:41.638Z,1.90
2022-10-16T13:39:31.846Z,2.00
2022-10-16T13:42:28.095Z,1.73
2022-10-16T13:45:35.780Z,1.73
2022-10-16T13:49:26.715Z,1.70
2022-10-16T13:52:31.854Z,1.83
2022-10-16T13:55:43.530Z,1.77
2022-10-16T14:04:27.714Z,1.67
2022-10-16T14:07:21.959Z,1.88
2022-10-16T14:11:30.052Z,1.60
2022-10-16T14:14:24.305Z,1.98
2022-10-16T14:17:33.060Z,1.58
2022-10-16T14:20:29.397Z,1.83
2022-10-16T14:23:24.032Z,1.73
2022-10-16T14:29:26.059Z,1.42
2022-10-16T14:33:10.851Z,1.75
2022-10-16T14:36:33.196Z,1.85
2022-10-16T14:39:42.062Z,1.95
2022-10-16T14:46:34.094Z,1.80
2022-10-16T14:49:47.892Z,1.90
2022-10-16T14:52:22.692Z,1.98
2022-10-16T14:55:15.497Z,1.70
2022-10-16T14:57:55.577Z,1.93
2022-10-16T15:00:57.875Z,1.90
2022-10-16T15:04:49.385Z,2.10
2022-10-16T15:07:42.043Z,1.73
2022-10-16T15:10:47.853Z,1.65
2022-10-16T15:15:58.085Z,1.65
2022-10-16T15:20:24.767Z,1.40
2022-10-16T15:23:52.042Z,1.67
2022-10-16T16:16:03.148Z,2.03
2022-10-16T16:28:19.404Z,2.10
2022-10-16T17:11:16.253Z,1.67
2022-10-16T17:14:09.751Z,1.80
2022-10-16T17:27:10.959Z,1.90
2022-10-16T17:35:55.687Z,1.75
2022-10-16T17:54:28.211Z,2.22
2022-10-16T17:58:04.827Z,2.05
2022-10-16T18:00:50.293Z,2.10
2022-10-16T18:03:32.328Z,2.30
2022-10-16T18:06:29.086Z,2.20
2022-10-16T18:10:21.804Z,2.30
2022-10-16T18:14:26.972Z,2.05
2022-10-16T18:19:15.604Z,2.10
2022-10-16T18:22:28.768Z,2.10
2022-10-16T18:32:38.197Z,2.10
2022-10-16T18:35:31.608Z,1.90
2022-10-16T18:43:51.024Z,1.80
2022-10-16T18:51:12.898Z,2.00
2022-10-16T18:54:04.086Z,1.90
2022-10-16T18:57:34.399Z,1.80
2022-10-16T19:00:16.569Z,2.30
2022-10-16T19:11:30.993Z,1.80
2022-10-16T19:18:05.505Z,2.30
2022-10-16T19:21:16.052Z,2.10
2022-10-16T19:25:40.244Z,1.92
2022-10-16T19:34:18.732Z,1.85
2022-10-16T19:37:36.185Z,1.90
2022-10-16T19:40:58.148Z,2.10
2022-10-16T19:44:39.463Z,2.00
2022-10-16T19:54:03.413Z,1.90
2022-10-16T19:57:51.747Z,2.17
2022-10-16T20:00:46.855Z,1.98
2022-10-16T20:04:29.071Z,2.15
2022-10-16T20:07:59.490Z,2.03
2022-10-16T20:11:04.512Z,1.85
2022-10-16T20:15:48.570Z,2.10
2022-10-16T20:23:04.803Z,2.20
2022-10-16T20:42:54.163Z,1.90
2022-10-16T20:46:28.010Z,1.90
2022-10-16T21:12:27.215Z,2.28
2022-10-16T21:15:30.953Z,2.10
2022-10-16T21:19:23.924Z,2.47
2022-10-16T21:22:26.741Z,2.47
2022-10-16T21:29:37.612Z,2.45
2022-10-16T21:36:34.721Z,2.65
2022-10-16T21:40:32.446Z,2.60
2022-10-16T21:45:27.715Z,2.30
2022-10-16T21:50:55.587Z,2.03
2022-10-16T21:54:01.014Z,2.00
2022-10-16T21:58:02.471Z,2.10
2022-10-16T22:01:00.772Z,2.30
2022-10-16T22:03:42.851Z,2.35
2022-10-16T22:10:54.650Z,2.40
2022-10-16T22:36:12.618Z,2.28
2022-10-16T22:44:44.171Z,2.08
2022-10-16T22:47:14.341Z,2.20
2022-10-16T22:49:43.717Z,2.60
2022-10-16T22:52:13.992Z,2.80
2022-10-16T22:54:50.076Z,2.65
2022-10-16T22:57:22.419Z,2.63
2022-10-16T23:03:04.593Z,2.50
2022-10-16T23:05:45.039Z,2.38
2022-10-16T23:09:08.674Z,2.25
2022-10-16T23:12:07.422Z,2.30
2022-10-16T23:15:00.137Z,2.33
2022-10-16T23:17:47.078Z,2.45
2022-10-16T23:20:20.346Z,2.55
2022-10-16T23:22:59.924Z,2.42
2022-10-16T23:25:41.841Z,2.47
2022-10-16T23:28:34.112Z,2.97
2022-10-16T23:31:27.187Z,2.50
2022-10-16T23:34:28.394Z,2.40
2022-10-16T23:37:51.592Z,2.40
2022-10-16T23:40:33.755Z,2.55
2022-10-16T23:43:15.371Z,2.40
2022-10-16T23:45:58.890Z,2.75
2022-10-16T23:49:32.941Z,2.47
2022-10-16T23:52:43.462Z,2.60
2022-10-16T23:55:35.330Z,2.63
